Time;durP1;ratioP1;P1;durP2;ratioP2;P2;SDS_P1;SDS_P2;PMS_P1;PMS_P2;Temp;Humidity;BMP_temperature;BMP_pressure;BME280_temperature;BME280_humidity;BME280_pressure;Samples;Min_cycle;Max_cycle;Signal;HPM_P1;HPM_P2
2022/11/08 00:02:11;;;;;;;7.13;2.67;;;;;;;;;;4995333;28;20045;-66
2022/11/08 00:04:37;;;;;;;9.80;2.70;;;;;;;;;;4994095;28;20026;-66
2022/11/08 00:15:15;;;;;;;6.38;3.30;;;;;;;;;;4975746;28;20030;-67
2022/11/08 00:17:40;;;;;;;9.93;3.55;;;;;;;;;;4975510;28;20026;-67
2022/11/08 00:20:07;;;;;;;8.07;3.05;;;;;;;;;;4977735;28;20043;-67
2022/11/08 00:22:33;;;;;;;6.72;3.03;;;;;;;;;;4982323;28;20030;-67
2022/11/08 00:24:58;;;;;;;7.82;3.10;;;;;;;;;;5013461;28;20029;-67
2022/11/08 00:27:25;;;;;;;8.55;3.00;;;;;;;;;;5000070;28;20029;-67
2022/11/08 00:29:50;;;;;;;7.32;3.47;;;;;;;;;;5004685;28;20148;-67
2022/11/08 00:32:19;;;;;;;9.18;3.08;;;;;;;;;;4994859;28;20065;-67
2022/11/08 00:34:45;;;;;;;8.63;2.83;;;;;;;;;;4994529;28;20475;-66
2022/11/08 00:37:11;;;;;;;9.43;3.03;;;;;;;;;;4994584;28;20027;-67
2022/11/08 00:39:37;;;;;;;7.20;3.15;;;;;;;;;;4994532;28;20042;-67
2022/11/08 00:42:03;;;;;;;6.97;3.10;;;;;;;;;;4994510;28;20038;-67
2022/11/08 00:44:28;;;;;;;9.45;2.75;;;;;;;;;;4994593;28;20031;-68
2022/11/08 00:46:54;;;;;;;5.13;2.50;;;;;;;;;;4994588;28;20535;-67
2022/11/08 00:49:19;;;;;;;4.55;2.65;;;;;;;;;;4994391;28;20022;-67
2022/11/08 00:51:45;;;;;;;6.75;2.92;;;;;;;;;;4994341;28;20034;-65
2022/11/08 00:54:17;;;;;;;5.72;2.88;;;;;;;;;;4994319;28;20498;-67
2022/11/08 00:56:44;;;;;;;10.05;2.83;;;;;;;;;;5003529;28;20498;-68
2022/11/08 00:59:11;;;;;;;5.70;3.17;;;;;;;;;;5004501;28;20018;-67
2022/11/08 01:01:37;;;;;;;6.13;2.83;;;;;;;;;;4996130;28;20030;-67
2022/11/08 01:04:02;;;;;;;4.35;2.60;;;;;;;;;;5008144;28;20023;-68
2022/11/08 01:06:28;;;;;;;5.53;2.72;;;;;;;;;;5003199;28;20022;-66
2022/11/08 01:08:54;;;;;;;8.85;2.90;;;;;;;;;;5001121;28;20037;-68
2022/11/08 01:11:22;;;;;;;5.55;2.53;;;;;;;;;;5009955;28;20112;-67
2022/11/08 01:13:48;;;;;;;9.27;2.70;;;;;;;;;;4981651;28;20112;-67
2022/11/08 01:16:17;;;;;;;10.45;2.85;;;;;;;;;;5006409;28;20033;-68
2022/11/08 01:18:43;;;;;;;6.03;2.50;;;;;;;;;;5004835;28;20100;-69
2022/11/08 01:21:09;;;;;;;8.02;2.70;;;;;;;;;;4998853;28;20113;-67
2022/11/08 01:23:35;;;;;;;8.27;2.63;;;;;;;;;;5010037;28;20088;-68
2022/11/08 01:26:06;;;;;;;7.38;2.67;;;;;;;;;;4999000;28;20122;-67
2022/11/08 01:28:32;;;;;;;7.55;2.92;;;;;;;;;;5003396;28;20136;-66
2022/11/08 01:31:03;;;;;;;6.55;3.47;;;;;;;;;;5006455;28;20046;-68
2022/11/08 01:33:28;;;;;;;7.28;2.75;;;;;;;;;;4997039;28;20019;-67
2022/11/08 01:35:54;;;;;;;6.55;2.92;;;;;;;;;;5008798;28;20034;-67
2022/11/08 01:38:19;;;;;;;6.38;2.95;;;;;;;;;;5000356;28;20022;-67
2022/11/08 01:40:46;;;;;;;10.80;3.25;;;;;;;;;;5001940;28;20030;-67
2022/11/08 01:43:30;;;;;;;6.30;2.78;;;;;;;;;;5008627;28;20022;-67
2022/11/08 01:46:25;;;;;;;8.82;3.30;;;;;;;;;;4983511;28;20072;-67
2022/11/08 01:49:21;;;;;;;6.15;2.83;;;;;;;;;;5000965;28;20546;-67
2022/11/08 01:51:55;;;;;;;5.38;2.42;;;;;;;;;;4981331;28;20033;-66
2022/11/08 01:54:30;;;;;;;6.05;2.97;;;;;;;;;;5004685;28;20125;-68
2022/11/08 01:56:58;;;;;;;7.57;2.92;;;;;;;;;;5006313;28;20026;-67
2022/11/08 01:59:24;;;;;;;6.25;2.42;;;;;;;;;;4996678;28;20072;-66
2022/11/08 02:01:50;;;;;;;6.82;2.90;;;;;;;;;;5009162;28;20062;-67
2022/11/08 02:04:16;;;;;;;5.80;2.80;;;;;;;;;;5000913;28;20014;-68
2022/11/08 02:06:43;;;;;;;6.00;2.35;;;;;;;;;;5001958;28;20580;-68
2022/11/08 02:09:10;;;;;;;6.22;3.15;;;;;;;;;;5007597;28;20022;-67
2022/11/08 02:11:36;;;;;;;5.90;2.78;;;;;;;;;;4996546;28;20488;-67
2022/11/08 02:14:02;;;;;;;9.05;2.83;;;;;;;;;;5007345;28;20066;-67
2022/11/08 02:16:28;;;;;;;9.07;2.47;;;;;;;;;;5002338;28;20462;-67
2022/11/08 02:18:53;;;;;;;6.78;2.53;;;;;;;;;;5000303;28;20050;-66
2022/11/08 02:21:37;;;;;;;7.20;2.50;;;;;;;;;;5009253;28;20030;-66
2022/11/08 02:24:08;;;;;;;6.82;2.72;;;;;;;;;;4974096;28;20054;-67
2022/11/08 02:26:34;;;;;;;;;;;;;;;;;;4993300;28;20485;-67
2022/11/08 02:29:29;;;;;;;7.38;2.92;;;;;;;;;;4999293;28;20357;-68
2022/11/08 02:31:56;;;;;;;8.70;3.30;;;;;;;;;;4982188;28;20026;-67
2022/11/08 02:34:26;;;;;;;8.02;3.10;;;;;;;;;;5004807;28;20030;-68
2022/11/08 02:36:52;;;;;;;6.22;2.38;;;;;;;;;;4993027;28;20026;-67
2022/11/08 02:39:17;;;;;;;7.78;2.58;;;;;;;;;;5002015;28;20033;-66
2022/11/08 02:41:42;;;;;;;7.05;2.55;;;;;;;;;;5012824;28;20025;-67
2022/11/08 02:44:08;;;;;;;9.45;2.80;;;;;;;;;;5012879;28;20029;-68
2022/11/08 02:46:33;;;;;;;10.55;2.65;;;;;;;;;;4995400;28;20411;-67
2022/11/08 02:48:59;;;;;;;8.40;2.58;;;;;;;;;;4996937;28;20028;-66
2022/11/08 02:51:24;;;;;;;4.97;2.40;;;;;;;;;;5009920;28;20479;-66
2022/11/08 02:53:50;;;;;;;6.90;2.30;;;;;;;;;;5006540;28;20022;-68
2022/11/08 02:56:15;;;;;;;5.90;2.50;;;;;;;;;;5003114;28;20531;-67
2022/11/08 02:58:41;;;;;;;4.82;2.47;;;;;;;;;;5012737;28;20033;-67
2022/11/08 03:01:06;;;;;;;6.93;2.42;;;;;;;;;;5000565;28;20025;-67
2022/11/08 03:03:31;;;;;;;7.38;2.40;;;;;;;;;;5008888;28;20026;-67
2022/11/08 03:05:57;;;;;;;5.95;2.20;;;;;;;;;;5007029;28;20365;-68
2022/11/08 03:08:22;;;;;;;9.00;2.58;;;;;;;;;;5001848;28;20026;-67
2022/11/08 03:10:48;;;;;;;9.80;2.75;;;;;;;;;;5012720;28;20037;-67
2022/11/08 03:13:13;;;;;;;8.93;2.50;;;;;;;;;;5001184;28;20133;-67
2022/11/08 03:15:39;;;;;;;6.88;2.30;;;;;;;;;;5007778;28;20026;-67
2022/11/08 03:18:05;;;;;;;6.50;2.38;;;;;;;;;;5008225;28;20110;-67
2022/11/08 03:20:30;;;;;;;7.38;2.20;;;;;;;;;;5015867;28;20112;-67
2022/11/08 03:23:03;;;;;;;6.82;2.50;;;;;;;;;;5016151;28;20026;-67
2022/11/08 03:25:29;;;;;;;4.35;2.00;;;;;;;;;;5007871;28;20477;-67
2022/11/08 03:27:55;;;;;;;5.38;1.98;;;;;;;;;;5003385;28;20045;-66
2022/11/08 03:30:20;;;;;;;7.65;2.50;;;;;;;;;;5010140;28;20037;-67
2022/11/08 03:32:46;;;;;;;7.82;2.22;;;;;;;;;;5015640;28;20033;-67
2022/11/08 03:35:13;;;;;;;6.15;2.25;;;;;;;;;;4995942;28;20027;-64
2022/11/08 03:37:38;;;;;;;6.95;2.03;;;;;;;;;;4996087;28;20041;-66
2022/11/08 03:40:04;;;;;;;7.18;2.38;;;;;;;;;;5012068;28;20030;-68
2022/11/08 03:42:30;;;;;;;7.90;2.92;;;;;;;;;;5002270;28;20093;-67
2022/11/08 03:44:55;;;;;;;5.22;2.30;;;;;;;;;;5005804;28;20066;-67
2022/11/08 03:47:21;;;;;;;6.20;2.10;;;;;;;;;;5008993;28;20040;-68
2022/11/08 03:49:46;;;;;;;7.40;2.13;;;;;;;;;;5008005;28;20024;-68
2022/11/08 03:52:12;;;;;;;4.95;2.00;;;;;;;;;;4995876;28;20026;-68
2022/11/08 03:54:37;;;;;;;7.05;2.50;;;;;;;;;;4995691;28;20038;-68
2022/11/08 03:57:03;;;;;;;6.60;2.30;;;;;;;;;;5007110;28;20116;-68
2022/11/08 03:59:28;;;;;;;8.45;2.30;;;;;;;;;;5015309;28;20437;-68
2022/11/08 04:01:54;;;;;;;5.70;2.33;;;;;;;;;;5014393;28;20116;-68
2022/11/08 04:04:19;;;;;;;8.57;2.67;;;;;;;;;;4995940;28;20117;-68
2022/11/08 04:06:45;;;;;;;8.27;3.25;;;;;;;;;;4997015;28;20053;-66
2022/11/08 04:09:10;;;;;;;7.63;2.80;;;;;;;;;;5009960;28;20018;-68
2022/11/08 04:17:04;;;;;;;6.32;2.40;;;;;;;;;;4976341;28;20491;-67
2022/11/08 04:22:13;;;;;;;5.80;2.38;;;;;;;;;;4995704;28;20026;-67
2022/11/08 04:24:39;;;;;;;7.82;2.63;;;;;;;;;;4995399;28;20042;-67
2022/11/08 04:27:04;;;;;;;4.95;2.30;;;;;;;;;;5001494;28;20529;-68
2022/11/08 04:29:30;;;;;;;5.07;2.20;;;;;;;;;;5007782;28;20038;-67
2022/11/08 04:31:55;;;;;;;5.65;2.65;;;;;;;;;;4995203;28;20034;-66
2022/11/08 04:34:21;;;;;;;4.78;2.15;;;;;;;;;;5008908;28;20463;-68
2022/11/08 04:36:46;;;;;;;6.78;2.30;;;;;;;;;;5014299;28;20034;-66
2022/11/08 04:39:12;;;;;;;5.22;2.10;;;;;;;;;;4998381;28;20067;-67
2022/11/08 04:41:38;;;;;;;9.68;2.50;;;;;;;;;;5007308;28;20101;-68
2022/11/08 04:44:03;;;;;;;11.00;3.17;;;;;;;;;;5005339;28;20042;-67
2022/11/08 04:46:29;;;;;;;5.50;2.13;;;;;;;;;;5000295;28;20042;-68
2022/11/08 04:48:56;;;;;;;15.90;2.83;;;;;;;;;;4994493;28;20037;-67
2022/11/08 04:51:25;;;;;;;5.18;2.45;;;;;;;;;;5005260;28;20463;-67
2022/11/08 04:53:51;;;;;;;7.50;2.63;;;;;;;;;;5014276;28;20468;-67
2022/11/08 04:56:19;;;;;;;10.63;2.67;;;;;;;;;;5014255;28;20034;-66
2022/11/08 04:58:47;;;;;;;7.90;2.45;;;;;;;;;;4996682;28;20033;-67
2022/11/08 05:01:16;;;;;;;11.45;2.50;;;;;;;;;;4994389;28;20098;-67
2022/11/08 05:03:42;;;;;;;5.53;2.17;;;;;;;;;;5006384;28;20110;-67
2022/11/08 05:06:12;;;;;;;5.93;2.10;;;;;;;;;;5014192;28;20105;-67
2022/11/08 05:08:39;;;;;;;6.82;2.35;;;;;;;;;;5002268;28;20034;-66
2022/11/08 05:11:10;;;;;;;6.85;2.22;;;;;;;;;;5009185;28;20044;-67
2022/11/08 05:13:36;;;;;;;5.82;2.22;;;;;;;;;;4997321;28;20033;-67
2022/11/08 05:16:04;;;;;;;6.93;2.70;;;;;;;;;;5007048;28;20479;-67
2022/11/08 05:18:31;;;;;;;5.75;2.33;;;;;;;;;;4993968;28;20101;-67
2022/11/08 05:23:43;;;;;;;5.63;2.53;;;;;;;;;;5014105;28;20370;-67
2022/11/08 05:26:09;;;;;;;6.18;2.30;;;;;;;;;;5008509;28;20100;-67
2022/11/08 05:28:34;;;;;;;5.40;2.15;;;;;;;;;;4993714;28;20491;-66
2022/11/08 05:31:00;;;;;;;7.25;2.42;;;;;;;;;;4978838;28;20070;-67
2022/11/08 05:33:26;;;;;;;7.57;2.85;;;;;;;;;;4974581;28;20037;-68
2022/11/08 05:35:52;;;;;;;7.43;2.58;;;;;;;;;;4983525;28;20108;-67
2022/11/08 05:38:18;;;;;;;7.65;2.70;;;;;;;;;;5008314;28;20379;-68
2022/11/08 05:40:44;;;;;;;4.95;2.30;;;;;;;;;;5002172;28;20033;-67
2022/11/08 05:43:09;;;;;;;7.70;2.55;;;;;;;;;;5001192;28;20022;-66
2022/11/08 05:45:35;;;;;;;6.47;2.53;;;;;;;;;;5009024;28;20061;-67
2022/11/08 05:48:04;;;;;;;8.23;2.85;;;;;;;;;;4997771;28;20088;-67
2022/11/08 05:50:34;;;;;;;8.15;2.65;;;;;;;;;;4993498;28;20018;-67
2022/11/08 05:53:00;;;;;;;6.47;2.60;;;;;;;;;;4999319;28;20471;-68
2022/11/08 05:55:25;;;;;;;6.18;2.50;;;;;;;;;;5013103;28;20037;-67
2022/11/08 05:57:51;;;;;;;5.20;2.40;;;;;;;;;;5013182;28;20509;-66
2022/11/08 06:00:18;;;;;;;8.80;3.38;;;;;;;;;;4998163;28;20081;-65
2022/11/08 06:02:43;;;;;;;7.55;2.45;;;;;;;;;;4993567;28;20030;-66
2022/11/08 06:05:10;;;;;;;8.10;2.45;;;;;;;;;;4995776;28;20148;-66
2022/11/08 06:07:35;;;;;;;12.63;3.00;;;;;;;;;;5012977;28;20034;-66
2022/11/08 06:10:01;;;;;;;7.00;2.42;;;;;;;;;;5006589;28;20029;-67
2022/11/08 06:12:27;;;;;;;10.90;3.13;;;;;;;;;;5003035;28;20030;-68
2022/11/08 06:14:52;;;;;;;9.07;2.53;;;;;;;;;;4999258;28;20088;-66
2022/11/08 06:17:18;;;;;;;7.95;3.15;;;;;;;;;;5002866;28;20028;-67
2022/11/08 06:19:43;;;;;;;10.35;2.78;;;;;;;;;;5013061;28;20364;-68
2022/11/08 06:22:09;;;;;;;6.63;2.50;;;;;;;;;;5013006;28;20029;-67
2022/11/08 06:24:35;;;;;;;9.25;2.78;;;;;;;;;;5001004;28;20494;-67
2022/11/08 06:27:01;;;;;;;9.77;3.28;;;;;;;;;;4997338;28;20077;-67
2022/11/08 06:29:26;;;;;;;11.05;2.83;;;;;;;;;;4999136;28;20038;-67
2022/11/08 06:31:51;;;;;;;6.90;2.80;;;;;;;;;;5016811;28;20057;-67
2022/11/08 06:34:17;;;;;;;7.22;2.70;;;;;;;;;;5016855;28;20422;-67
2022/11/08 06:36:42;;;;;;;5.32;3.00;;;;;;;;;;5005843;28;20121;-67
2022/11/08 06:39:08;;;;;;;8.95;2.72;;;;;;;;;;5011054;28;20022;-67
2022/11/08 06:41:34;;;;;;;8.48;3.00;;;;;;;;;;5000253;28;20511;-67
2022/11/08 06:43:59;;;;;;;6.28;2.65;;;;;;;;;;5011456;28;20053;-67
2022/11/08 06:46:25;;;;;;;8.10;3.10;;;;;;;;;;4997785;28;20023;-67
2022/11/08 06:48:50;;;;;;;7.15;2.78;;;;;;;;;;5016534;28;20088;-68
2022/11/08 06:51:17;;;;;;;8.57;2.85;;;;;;;;;;5016527;28;20032;-67
2022/11/08 06:53:42;;;;;;;6.63;2.90;;;;;;;;;;5006706;28;20033;-68
2022/11/08 06:56:08;;;;;;;11.75;3.50;;;;;;;;;;4996722;28;20030;-67
2022/11/08 06:58:34;;;;;;;18.55;3.60;;;;;;;;;;4996208;28;20431;-67
2022/11/08 07:01:07;;;;;;;8.25;2.85;;;;;;;;;;5014687;28;20034;-68
2022/11/08 07:03:33;;;;;;;6.15;2.47;;;;;;;;;;5016142;28;20021;-67
2022/11/08 07:06:03;;;;;;;6.18;2.20;;;;;;;;;;5008343;28;20026;-67
2022/11/08 07:08:30;;;;;;;7.65;2.30;;;;;;;;;;4996369;28;20049;-67
2022/11/08 07:10:55;;;;;;;6.40;2.13;;;;;;;;;;5011352;28;20121;-68
2022/11/08 07:13:21;;;;;;;16.08;3.03;;;;;;;;;;4999232;28;20440;-67
2022/11/08 07:15:46;;;;;;;9.02;2.38;;;;;;;;;;5009743;28;20045;-68
2022/11/08 07:18:14;;;;;;;9.25;2.80;;;;;;;;;;5005830;28;20092;-67
2022/11/08 07:20:40;;;;;;;3.92;1.67;;;;;;;;;;5015967;28;20038;-68
2022/11/08 07:23:06;;;;;;;8.75;3.47;;;;;;;;;;5015166;28;20129;-68
2022/11/08 07:25:32;;;;;;;7.35;2.65;;;;;;;;;;4996387;28;20087;-67
2022/11/08 07:28:05;;;;;;;10.73;2.78;;;;;;;;;;4995747;28;20023;-67
2022/11/08 07:30:31;;;;;;;8.23;2.50;;;;;;;;;;4984782;28;20034;-68
2022/11/08 07:32:57;;;;;;;8.25;2.58;;;;;;;;;;4976757;28;20027;-67
2022/11/08 07:35:24;;;;;;;7.90;2.70;;;;;;;;;;4976552;28;20031;-67
2022/11/08 07:37:49;;;;;;;5.88;2.38;;;;;;;;;;5015648;28;20037;-68
2022/11/08 07:40:15;;;;;;;4.82;2.30;;;;;;;;;;5000351;28;20030;-67
2022/11/08 07:42:41;;;;;;;7.50;2.40;;;;;;;;;;5011787;28;20025;-68
2022/11/08 07:45:07;;;;;;;9.18;2.58;;;;;;;;;;5001537;28;20026;-67
2022/11/08 07:47:33;;;;;;;7.80;2.35;;;;;;;;;;5006589;28;20081;-68
2022/11/08 07:49:59;;;;;;;6.93;2.22;;;;;;;;;;4995829;28;20023;-67
2022/11/08 07:52:24;;;;;;;10.00;2.70;;;;;;;;;;4995863;28;20034;-68
2022/11/08 07:54:50;;;;;;;6.10;2.45;;;;;;;;;;5009301;28;20034;-68
2022/11/08 07:57:15;;;;;;;10.00;2.45;;;;;;;;;;5015073;28;20182;-66
2022/11/08 07:59:41;;;;;;;5.97;2.40;;;;;;;;;;5010302;28;20038;-68
2022/11/08 08:02:09;;;;;;;6.10;2.20;;;;;;;;;;4987532;28;20370;-67
2022/11/08 08:04:34;;;;;;;5.35;2.05;;;;;;;;;;5000366;28;20436;-68
2022/11/08 08:07:00;;;;;;;7.30;2.33;;;;;;;;;;4994765;28;20038;-67
2022/11/08 08:09:25;;;;;;;5.93;2.20;;;;;;;;;;5012361;28;20546;-67
2022/11/08 08:11:51;;;;;;;7.03;2.38;;;;;;;;;;5004815;28;20023;-67
2022/11/08 08:41:09;;;;;;;8.93;3.25;;;;;;;;;;5076177;27;20463;-66
2022/11/08 08:43:34;;;;;;;4.55;2.60;;;;;;;;;;5069454;28;20037;-62
2022/11/08 08:46:02;;;;;;;10.43;2.70;;;;;;;;;;5069092;28;20513;-62
2022/11/08 08:48:27;;;;;;;12.15;3.42;;;;;;;;;;5079053;28;20385;-63
2022/11/08 08:50:53;;;;;;;11.80;3.42;;;;;;;;;;5088539;28;20021;-64
2022/11/08 08:53:19;;;;;;;6.57;2.20;;;;;;;;;;5089409;28;20081;-65
2022/11/08 08:55:46;;;;;;;7.95;2.55;;;;;;;;;;5088095;28;20119;-65
2022/11/08 08:58:12;;;;;;;6.85;2.45;;;;;;;;;;5089341;28;20081;-64
2022/11/08 09:00:38;;;;;;;12.60;3.40;;;;;;;;;;5088983;28;20455;-67
2022/11/08 09:03:05;;;;;;;6.60;2.20;;;;;;;;;;5089189;28;20028;-67
2022/11/08 09:05:32;;;;;;;7.15;2.33;;;;;;;;;;5089245;28;20484;-67
2022/11/08 09:07:58;;;;;;;8.45;2.45;;;;;;;;;;5089032;28;20487;-67
2022/11/08 09:10:23;;;;;;;6.90;2.40;;;;;;;;;;5089046;28;20039;-69
2022/11/08 09:12:49;;;;;;;7.72;2.80;;;;;;;;;;5089191;28;20024;-67
2022/11/08 09:15:16;;;;;;;6.78;2.60;;;;;;;;;;5089158;28;20028;-68
2022/11/08 09:17:41;;;;;;;6.88;2.58;;;;;;;;;;5089066;28;20020;-67
2022/11/08 09:20:08;;;;;;;6.07;2.17;;;;;;;;;;5089207;28;20474;-67
2022/11/08 09:22:33;;;;;;;9.73;2.53;;;;;;;;;;5088911;28;20023;-67
2022/11/08 09:24:59;;;;;;;7.28;2.13;;;;;;;;;;5088999;28;20103;-67
2022/11/08 09:27:27;;;;;;;14.88;3.20;;;;;;;;;;5088975;28;20028;-67
2022/11/08 09:29:52;;;;;;;7.18;2.22;;;;;;;;;;5088857;28;20040;-67
2022/11/08 09:32:18;;;;;;;10.43;2.20;;;;;;;;;;5088694;28;20356;-67
2022/11/08 09:34:43;;;;;;;6.40;2.30;;;;;;;;;;5088813;28;20035;-67
2022/11/08 09:37:09;;;;;;;9.88;2.58;;;;;;;;;;5088384;28;20029;-67
2022/11/08 09:39:34;;;;;;;9.57;2.63;;;;;;;;;;5088386;28;20394;-67
2022/11/08 09:42:10;;;;;;;6.80;2.17;;;;;;;;;;5075747;28;20028;-67
2022/11/08 09:44:48;;;;;;;8.82;2.30;;;;;;;;;;5074932;28;20020;-67
2022/11/08 09:47:25;;;;;;;5.93;2.33;;;;;;;;;;5074897;28;20025;-66
2022/11/08 09:50:17;;;;;;;6.40;2.20;;;;;;;;;;5075238;28;20317;-66
2022/11/08 09:52:47;;;;;;;7.70;2.58;;;;;;;;;;5032835;28;20430;-65
2022/11/08 09:55:35;;;;;;;7.18;2.33;;;;;;;;;;5032956;28;20372;-68
2022/11/08 09:58:24;;;;;;;9.63;2.40;;;;;;;;;;5032895;28;20136;-65
2022/11/08 10:00:52;;;;;;;7.85;2.70;;;;;;;;;;5016244;28;20506;-65
2022/11/08 10:03:22;;;;;;;7.50;2.70;;;;;;;;;;5032781;28;20037;-66
2022/11/08 10:05:59;;;;;;;10.30;4.97;;;;;;;;;;5031305;28;20033;-67
2022/11/08 10:08:41;;;;;;;9.80;2.78;;;;;;;;;;5023695;28;20332;-68
2022/11/08 10:11:06;;;;;;;7.13;2.38;;;;;;;;;;5012565;28;20073;-68
2022/11/08 10:13:59;;;;;;;6.43;2.55;;;;;;;;;;5012370;28;20064;-67
2022/11/08 10:16:38;;;;;;;10.05;2.58;;;;;;;;;;5012404;28;20042;-68
2022/11/08 10:19:15;;;;;;;8.52;2.38;;;;;;;;;;5028462;28;20033;-68
2022/11/08 10:21:40;;;;;;;11.43;2.85;;;;;;;;;;5032010;28;20487;-67
2022/11/08 10:24:28;;;;;;;7.45;2.60;;;;;;;;;;5032146;28;20041;-67
2022/11/08 10:26:56;;;;;;;5.13;2.10;;;;;;;;;;5031843;28;20052;-67
2022/11/08 10:29:27;;;;;;;6.15;2.50;;;;;;;;;;5041777;28;20041;-67
2022/11/08 10:32:13;;;;;;;4.85;2.08;;;;;;;;;;5058095;28;20103;-67
2022/11/08 10:35:08;;;;;;;6.60;2.53;;;;;;;;;;5072812;28;20482;-66
2022/11/08 10:37:33;;;;;;;5.65;2.60;;;;;;;;;;5072193;28;20045;-66
2022/11/08 10:40:38;;;;;;;10.75;2.88;;;;;;;;;;5073728;28;20402;-67
2022/11/08 10:43:09;;;;;;;5.65;2.40;;;;;;;;;;5066114;28;20033;-65
2022/11/08 10:45:35;;;;;;;9.57;2.90;;;;;;;;;;5073964;28;20025;-67
2022/11/08 10:48:00;;;;;;;6.57;3.00;;;;;;;;;;5074048;28;20043;-66
2022/11/08 10:50:55;;;;;;;8.50;2.83;;;;;;;;;;5073576;28;20028;-67
2022/11/08 10:53:25;;;;;;;7.70;2.22;;;;;;;;;;5030651;28;20041;-67
2022/11/08 10:55:58;;;;;;;8.20;2.80;;;;;;;;;;5031364;28;20029;-67
2022/11/08 10:58:29;;;;;;;7.30;2.40;;;;;;;;;;5031390;28;20112;-67
2022/11/08 11:01:04;;;;;;;5.47;2.53;;;;;;;;;;5031463;28;20037;-66
2022/11/08 11:03:29;;;;;;;6.30;2.80;;;;;;;;;;5031544;28;20504;-65
2022/11/08 11:06:00;;;;;;;9.23;2.50;;;;;;;;;;5031216;28;20535;-67
2022/11/08 11:08:26;;;;;;;6.68;2.33;;;;;;;;;;5031235;28;20423;-67
2022/11/08 11:10:52;;;;;;;5.93;2.30;;;;;;;;;;5031169;28;20042;-67
2022/11/08 11:13:17;;;;;;;7.70;2.70;;;;;;;;;;5031455;28;20029;-67
2022/11/08 11:15:55;;;;;;;4.60;2.30;;;;;;;;;;5031092;28;20104;-66
2022/11/08 11:18:23;;;;;;;8.85;2.60;;;;;;;;;;5031103;28;20037;-67
2022/11/08 11:21:05;;;;;;;7.07;2.20;;;;;;;;;;5030943;28;20057;-66
2022/11/08 11:23:42;;;;;;;7.20;2.35;;;;;;;;;;5030949;28;20073;-67
2022/11/08 11:26:15;;;;;;;4.25;1.98;;;;;;;;;;5030923;28;20626;-67
2022/11/08 11:29:00;;;;;;;5.70;2.10;;;;;;;;;;5033668;28;20079;-65
2022/11/08 11:31:26;;;;;;;7.53;2.40;;;;;;;;;;5072093;28;20063;-67
2022/11/08 11:33:51;;;;;;;8.40;2.65;;;;;;;;;;5052939;28;20053;-66
2022/11/08 11:36:20;;;;;;;7.53;2.45;;;;;;;;;;5052772;28;20029;-64
2022/11/08 11:39:10;;;;;;;6.80;2.35;;;;;;;;;;5052766;28;20070;-66
2022/11/08 11:41:41;;;;;;;7.43;2.15;;;;;;;;;;5052634;28;20029;-67
2022/11/08 11:44:19;;;;;;;3.25;1.52;;;;;;;;;;5053028;28;20416;-66
2022/11/08 11:46:45;;;;;;;8.57;2.30;;;;;;;;;;5052844;28;20531;-65
2022/11/08 11:49:19;;;;;;;8.27;2.50;;;;;;;;;;5052677;28;20111;-65
2022/11/08 11:51:44;;;;;;;8.43;2.33;;;;;;;;;;5052832;28;20090;-68
2022/11/08 11:54:14;;;;;;;13.25;2.72;;;;;;;;;;5052392;28;20487;-65
2022/11/08 11:56:55;;;;;;;6.65;2.38;;;;;;;;;;5052737;28;20440;-66
2022/11/08 11:59:47;;;;;;;9.63;2.20;;;;;;;;;;5052532;28;20039;-65
2022/11/08 12:02:12;;;;;;;8.10;2.25;;;;;;;;;;5052487;28;20124;-65
2022/11/08 12:04:37;;;;;;;10.43;3.05;;;;;;;;;;5052253;28;20154;-67
2022/11/08 12:07:29;;;;;;;9.93;2.30;;;;;;;;;;5052567;28;20079;-65
2022/11/08 12:10:25;;;;;;;7.28;2.42;;;;;;;;;;5052196;28;20029;-65
2022/11/08 12:13:00;;;;;;;6.40;2.25;;;;;;;;;;5053984;28;20514;-67
2022/11/08 12:15:25;;;;;;;5.20;1.98;;;;;;;;;;5070969;28;20035;-66
2022/11/08 12:18:00;;;;;;;10.13;2.30;;;;;;;;;;5072678;28;20024;-65
2022/11/08 12:20:47;;;;;;;4.45;1.90;;;;;;;;;;5072152;28;20363;-65
2022/11/08 12:23:40;;;;;;;7.68;2.30;;;;;;;;;;5072041;28;20367;-66
2022/11/08 12:26:05;;;;;;;7.93;2.10;;;;;;;;;;5072073;28;20078;-67
2022/11/08 12:28:33;;;;;;;7.07;2.10;;;;;;;;;;5071372;28;20532;-68
2022/11/08 12:31:24;;;;;;;6.03;2.00;;;;;;;;;;5072182;28;20020;-68
2022/11/08 12:34:19;;;;;;;7.10;1.98;;;;;;;;;;5052466;28;20029;-66
2022/11/08 12:36:59;;;;;;;6.57;2.08;;;;;;;;;;5030130;28;20042;-67
2022/11/08 12:39:57;;;;;;;4.93;1.95;;;;;;;;;;5029858;28;20057;-66
2022/11/08 12:43:00;;;;;;;7.65;2.10;;;;;;;;;;5029962;28;20109;-67
2022/11/08 12:45:34;;;;;;;4.88;2.00;;;;;;;;;;5029907;28;20037;-66
2022/11/08 12:48:26;;;;;;;6.00;1.55;;;;;;;;;;5029711;28;20121;-65
2022/11/08 12:50:51;;;;;;;6.88;1.85;;;;;;;;;;5029821;28;20060;-66
2022/11/08 12:53:29;;;;;;;5.97;1.70;;;;;;;;;;5029703;28;20025;-67
2022/11/08 12:55:56;;;;;;;5.72;1.92;;;;;;;;;;5029690;28;20463;-68
2022/11/08 12:58:31;;;;;;;6.50;1.92;;;;;;;;;;5029746;28;20597;-67
2022/11/08 13:01:02;;;;;;;6.70;2.08;;;;;;;;;;5029806;28;20128;-66
2022/11/08 13:03:56;;;;;;;9.95;2.13;;;;;;;;;;5029504;28;20030;-67
2022/11/08 13:06:46;;;;;;;6.00;2.25;;;;;;;;;;5029190;28;20129;-67
2022/11/08 13:09:18;;;;;;;5.78;2.15;;;;;;;;;;5029739;28;20037;-66
2022/11/08 13:12:21;;;;;;;7.13;2.08;;;;;;;;;;5029800;28;20033;-67
2022/11/08 13:14:47;;;;;;;4.93;1.92;;;;;;;;;;5029790;28;20113;-68
2022/11/08 13:17:14;;;;;;;5.85;1.90;;;;;;;;;;5032762;28;20037;-68
2022/11/08 13:19:45;;;;;;;7.72;2.10;;;;;;;;;;5033228;28;20059;-67
2022/11/08 13:22:29;;;;;;;7.53;1.70;;;;;;;;;;5033013;28;20108;-66
2022/11/08 13:24:59;;;;;;;8.60;1.98;;;;;;;;;;5033106;28;20429;-67
2022/11/08 13:27:30;;;;;;;7.18;2.10;;;;;;;;;;5033118;28;20029;-67
2022/11/08 13:30:02;;;;;;;6.93;1.77;;;;;;;;;;5033023;28;20034;-67
2022/11/08 13:32:43;;;;;;;7.68;2.40;;;;;;;;;;5023679;28;20121;-67
2022/11/08 13:35:14;;;;;;;9.63;2.50;;;;;;;;;;5013356;28;20030;-66
2022/11/08 13:38:01;;;;;;;4.93;1.63;;;;;;;;;;5013222;28;20046;-68
2022/11/08 13:40:41;;;;;;;9.32;2.20;;;;;;;;;;5012865;28;20054;-67
2022/11/08 13:43:15;;;;;;;7.88;2.05;;;;;;;;;;5013220;28;20033;-66
2022/11/08 13:45:42;;;;;;;5.53;1.85;;;;;;;;;;5013093;28;20033;-66
2022/11/08 13:48:22;;;;;;;6.88;1.90;;;;;;;;;;5013042;28;20038;-67
2022/11/08 13:50:55;;;;;;;4.03;1.75;;;;;;;;;;5043239;28;20095;-67
2022/11/08 13:53:21;;;;;;;4.15;1.58;;;;;;;;;;5054853;28;20033;-67
2022/11/08 13:56:18;;;;;;;8.32;2.00;;;;;;;;;;5054889;28;20434;-67
2022/11/08 13:58:45;;;;;;;5.20;2.20;;;;;;;;;;5032662;28;20158;-67
2022/11/08 14:01:45;;;;;;;8.57;1.90;;;;;;;;;;5032586;28;20033;-67
2022/11/08 14:04:31;;;;;;;7.75;2.10;;;;;;;;;;4958597;28;20130;-67
2022/11/08 14:07:10;;;;;;;7.93;2.00;;;;;;;;;;4970139;28;20039;-67
2022/11/08 14:09:54;;;;;;;5.07;1.90;;;;;;;;;;4969811;28;20035;-67
2022/11/08 14:12:31;;;;;;;5.22;2.25;;;;;;;;;;4970236;28;20121;-68
2022/11/08 14:15:31;;;;;;;6.05;2.00;;;;;;;;;;4961173;28;20147;-67
2022/11/08 14:18:10;;;;;;;7.72;2.17;;;;;;;;;;4941961;29;20047;-67
2022/11/08 14:20:43;;;;;;;6.38;2.22;;;;;;;;;;4953866;29;20123;-66
2022/11/08 14:23:34;;;;;;;4.15;2.05;;;;;;;;;;4954454;29;20031;-67
2022/11/08 14:26:03;;;;;;;11.45;3.05;;;;;;;;;;4954369;29;20043;-67
2022/11/08 14:28:35;;;;;;;7.88;3.10;;;;;;;;;;4953811;28;20094;-67
2022/11/08 14:31:06;;;;;;;13.60;3.05;;;;;;;;;;4969681;28;20045;-65
2022/11/08 14:33:40;;;;;;;6.57;2.88;;;;;;;;;;4956624;28;20105;-67
2022/11/08 14:36:12;;;;;;;7.70;2.42;;;;;;;;;;4973172;28;20470;-67
2022/11/08 14:39:14;;;;;;;5.47;2.15;;;;;;;;;;4973163;28;20031;-67
2022/11/08 14:41:44;;;;;;;5.03;2.05;;;;;;;;;;5002497;28;20088;-65
2022/11/08 14:44:13;;;;;;;6.25;1.98;;;;;;;;;;5031939;28;20037;-65
2022/11/08 14:46:39;;;;;;;3.75;1.90;;;;;;;;;;5031917;28;20080;-66
2022/11/08 14:49:28;;;;;;;7.68;2.13;;;;;;;;;;5031683;28;20025;-67
2022/11/08 14:52:08;;;;;;;7.00;2.10;;;;;;;;;;5023776;28;20488;-66
2022/11/08 14:54:39;;;;;;;10.02;2.30;;;;;;;;;;5031601;28;20037;-67
2022/11/08 14:57:41;;;;;;;7.35;2.70;;;;;;;;;;5031322;28;20179;-67
2022/11/08 15:00:18;;;;;;;7.18;2.70;;;;;;;;;;5031596;28;20035;-67
2022/11/08 15:02:47;;;;;;;10.32;2.78;;;;;;;;;;5031301;28;20048;-66
2022/11/08 15:05:31;;;;;;;6.65;2.80;;;;;;;;;;5014615;28;20469;-65
2022/11/08 15:07:59;;;;;;;8.38;2.60;;;;;;;;;;5031214;28;20056;-66
2022/11/08 15:10:25;;;;;;;6.28;3.13;;;;;;;;;;5031103;28;20037;-67
2022/11/08 15:12:51;;;;;;;4.88;2.20;;;;;;;;;;5032378;28;20029;-66
2022/11/08 15:15:30;;;;;;;7.20;2.45;;;;;;;;;;5040481;28;20113;-67
2022/11/08 15:18:16;;;;;;;9.23;2.42;;;;;;;;;;5068049;28;20049;-67
2022/11/08 15:21:00;;;;;;;5.85;2.20;;;;;;;;;;5073143;28;20039;-67
2022/11/08 15:24:24;;;;;;;6.28;2.30;;;;;;;;;;5071363;28;20024;-67
2022/11/08 15:27:03;;;;;;;7.53;2.88;;;;;;;;;;5052178;28;20079;-67
2022/11/08 15:29:29;;;;;;;10.27;2.70;;;;;;;;;;5072665;28;20155;-66
2022/11/08 15:31:58;;;;;;;8.10;3.35;;;;;;;;;;5072301;28;20142;-67
2022/11/08 15:34:37;;;;;;;9.77;2.90;;;;;;;;;;5072436;28;20032;-64
2022/11/08 15:37:26;;;;;;;6.63;2.50;;;;;;;;;;5071336;28;20513;-64
2022/11/08 15:39:53;;;;;;;5.88;2.50;;;;;;;;;;5069880;28;20080;-66
2022/11/08 15:42:19;;;;;;;6.30;2.50;;;;;;;;;;5070887;28;20454;-67
2022/11/08 15:45:03;;;;;;;6.85;3.10;;;;;;;;;;5071298;28;20025;-66
2022/11/08 15:47:48;;;;;;;5.63;2.75;;;;;;;;;;5071747;28;20085;-67
2022/11/08 15:50:25;;;;;;;5.82;2.80;;;;;;;;;;5072089;28;20039;-66
2022/11/08 15:52:54;;;;;;;5.20;2.90;;;;;;;;;;5070701;28;20039;-65